Terminal Aerodrome Forecast
Issued by NWS

Home | Current Version | Previous Version | Text Only | Print | Product List | Glossary On
Versions: 1 2 3 4 5 6 7 8 9 10 11 12 13 14
864
FTUS43 KMPX 210520
TAFRNH
TAF
KRNH 210520Z 2106/2206 27011KT P6SM SCT250
     FM210900 29016G25KT P6SM SCT025 BKN050
      TEMPO 2111/2115 BKN025
     FM211500 31018G27KT P6SM OVC035
     FM212200 31015G22KT P6SM SKC
     FM220100 31010KT P6SM SKC=

USA.gov is the U.S. government's official web portal to all federal, state and local government web resources and services.